KDCA/DCA METAR and TAF weather

Enter ICAO airport designator
Station Type Date Time Source
KDCA METAR 2018/04/21 20:52 UTC NOAA

KDCA 212052Z 14004KT 10SM FEW120 BKN250 16/M01 A3035 RMK AO2 SLP276 T01561006 56020


Station Type Date Time Source
KDCA Decoded METAR 2018/04/21 20:52 UTC NOAA

WASHINGTON NATIONAL AIRPORT , VA, United States (KDCA) 38-51N 077-02W 18M
Apr 21, 2018 - 04:52 PM EDT / 2018.04.21 2052 UTC
Wind: from the SE (140 degrees) at 5 MPH (4 KT):0
Visibility: 10 mile(s):0
Sky conditions: mostly cloudy
Temperature: 60.1 F (15.6 C)
Dew Point: 30.9 F (-0.6 C)
Relative Humidity: 33%
Pressure (altimeter): 30.35 in. Hg (1027 hPa)
Pressure tendency: 0.06 inches (2.0 hPa) lower than three hours ago
ob: KDCA 212052Z 14004KT 10SM FEW120 BKN250 16/M01 A3035 RMK AO2 SLP276 T01561006 56020
cycle: 21

Station Type Date Time Source
KDCA TAF 2018/04/21 21:57 UTC NOAA

TAF
AMD KDCA 212054Z 2121/2224 08005KT P6SM BKN250
FM220100 VRB03KT P6SM SCT100 BKN250
FM221000 06004KT P6SM OVC110
FM221800 13004KT P6SM BKN070


Example: see airport list